Time;durP1;ratioP1;P1;durP2;ratioP2;P2;SDS_P1;SDS_P2;PMS_P1;PMS_P2;Temp;Humidity;BMP_temperature;BMP_pressure;BME280_temperature;BME280_humidity;BME280_pressure;Samples;Min_cycle;Max_cycle;Signal;HPM_P1;HPM_P2
2023/03/05 00:01:06;;;;;;;28.73;14.20;;;5.70;99.90;;;;;;5029534;28;20197;-59
2023/03/05 00:03:33;;;;;;;24.83;15.07;;;5.60;99.90;;;;;;5029476;28;20185;-59
2023/03/05 00:05:58;;;;;;;28.43;15.20;;;5.60;99.90;;;;;;5029831;28;20178;-60
2023/03/05 00:08:24;;;;;;;27.90;14.83;;;5.60;99.90;;;;;;5029969;28;20300;-60
2023/03/05 00:11:01;;;;;;;26.80;14.47;;;5.60;99.90;;;;;;5010981;28;20186;-59
2023/03/05 00:13:27;;;;;;;30.90;15.87;;;5.50;99.90;;;;;;5028859;28;20177;-59
2023/03/05 00:15:53;;;;;;;33.57;15.77;;;5.60;99.90;;;;;;5028887;28;20639;-59
2023/03/05 00:18:19;;;;;;;25.47;15.37;;;5.70;99.90;;;;;;5029906;28;20178;-59
2023/03/05 00:20:45;;;;;;;29.27;16.30;;;5.60;99.90;;;;;;5011890;28;20541;-59
2023/03/05 00:23:11;;;;;;;32.63;16.67;;;;;;;;;;5030194;28;20177;-59
2023/03/05 00:25:36;;;;;;;30.47;16.60;;;5.60;99.90;;;;;;5029409;28;20621;-60
2023/03/05 00:28:03;;;;;;;28.10;16.07;;;5.50;99.90;;;;;;5011110;28;20188;-59
2023/03/05 00:30:29;;;;;;;28.90;15.70;;;5.50;99.90;;;;;;5011956;28;20233;-59
2023/03/05 00:32:55;;;;;;;28.40;16.40;;;5.50;99.90;;;;;;5029801;28;20193;-58
2023/03/05 00:35:20;;;;;;;31.47;16.00;;;5.50;99.90;;;;;;5015620;28;20182;-59
2023/03/05 00:37:46;;;;;;;33.23;16.60;;;5.50;99.90;;;;;;5018310;28;20684;-59
2023/03/05 00:40:11;;;;;;;31.10;16.37;;;5.50;99.90;;;;;;5029276;28;20192;-59
2023/03/05 00:42:37;;;;;;;29.27;16.67;;;5.50;99.90;;;;;;5023851;28;20182;-59
2023/03/05 00:45:07;;;;;;;34.20;17.20;;;5.50;99.90;;;;;;5028277;28;20529;-59
2023/03/05 00:47:33;;;;;;;31.57;16.93;;;5.60;99.90;;;;;;5028972;28;20178;-58
2023/03/05 00:49:59;;;;;;;29.57;17.23;;;5.60;99.90;;;;;;5029780;28;20300;-59
2023/03/05 00:52:25;;;;;;;34.30;16.73;;;5.60;99.90;;;;;;5028706;28;20231;-59
2023/03/05 00:54:51;;;;;;;35.20;17.63;;;5.50;99.90;;;;;;5019489;28;20693;-58
2023/03/05 00:57:16;;;;;;;34.30;18.10;;;5.50;99.90;;;;;;5026876;28;20186;-58
2023/03/05 00:59:42;;;;;;;34.80;17.73;;;5.50;99.90;;;;;;5029604;28;20225;-59
2023/03/05 01:02:08;;;;;;;35.90;18.13;;;5.50;99.90;;;;;;5029733;28;20186;-58
2023/03/05 01:04:34;;;;;;;34.30;17.37;;;5.40;99.90;;;;;;5028518;28;20197;-58
2023/03/05 01:06:59;;;;;;;31.50;17.53;;;5.30;99.90;;;;;;5029475;28;20161;-59
2023/03/05 01:09:25;;;;;;;37.00;19.13;;;5.40;99.90;;;;;;5029390;28;20197;-58
2023/03/05 01:11:51;;;;;;;29.93;17.53;;;5.40;99.90;;;;;;5029071;28;20655;-58
2023/03/05 01:14:18;;;;;;;33.27;18.27;;;4.60;99.90;;;;;;5029765;28;20254;-58
2023/03/05 01:16:44;;;;;;;33.40;17.63;;;5.40;99.90;;;;;;5028521;28;20174;-59
2023/03/05 01:19:10;;;;;;;34.30;19.33;;;5.40;99.90;;;;;;5029063;28;20162;-59
2023/03/05 01:21:35;;;;;;;35.40;18.87;;;5.40;99.90;;;;;;5029260;28;20267;-58
2023/03/05 01:24:02;;;;;;;35.07;18.90;;;5.40;99.90;;;;;;5029625;28;20269;-59
2023/03/05 01:26:28;;;;;;;37.83;20.37;;;5.40;99.90;;;;;;5029607;28;20178;-59
2023/03/05 01:28:53;;;;;;;38.50;20.00;;;5.30;99.90;;;;;;5011410;28;20223;-59
2023/03/05 01:31:19;;;;;;;35.13;20.30;;;5.30;99.90;;;;;;5028350;28;20661;-60
2023/03/05 01:33:45;;;;;;;33.23;19.00;;;5.40;99.90;;;;;;5028967;28;20217;-60
2023/03/05 01:36:15;;;;;;;37.33;19.50;;;5.40;99.90;;;;;;5028736;28;20174;-59
2023/03/05 01:38:46;;;;;;;35.47;19.60;;;5.40;99.90;;;;;;5005172;28;20305;-59
2023/03/05 01:41:13;;;;;;;33.60;18.97;;;5.40;99.90;;;;;;5028633;28;20646;-59
2023/03/05 01:43:40;;;;;;;36.83;19.33;;;5.40;99.90;;;;;;5028946;28;20356;-59
2023/03/05 01:46:12;;;;;;;37.70;20.17;;;5.40;99.90;;;;;;5013046;28;20178;-59
2023/03/05 01:48:43;;;;;;;35.07;19.43;;;5.40;99.90;;;;;;5028852;28;20198;-60
2023/03/05 01:51:08;;;;;;;34.67;19.93;;;5.40;99.90;;;;;;5028985;28;20272;-59
2023/03/05 01:53:34;;;;;;;36.87;19.03;;;5.50;99.90;;;;;;5028471;28;20268;-59
2023/03/05 01:56:00;;;;;;;33.57;19.63;;;5.40;99.90;;;;;;5029025;28;20285;-59
2023/03/05 01:58:26;;;;;;;37.43;20.43;;;5.40;99.90;;;;;;5028748;28;20225;-59
2023/03/05 02:00:54;;;;;;;34.07;19.67;;;5.40;99.90;;;;;;5029447;28;20648;-57
2023/03/05 02:03:22;;;;;;;37.07;19.47;;;5.30;99.90;;;;;;5028363;28;20182;-59
2023/03/05 02:05:48;;;;;;;40.17;19.67;;;5.40;99.90;;;;;;5028106;28;20180;-58
2023/03/05 02:08:17;;;;;;;36.70;20.23;;;5.30;99.90;;;;;;5009978;28;20178;-58
2023/03/05 02:10:48;;;;;;;37.83;20.33;;;5.30;99.90;;;;;;5024566;28;20342;-58
2023/03/05 02:13:23;;;;;;;37.30;18.60;;;5.30;99.90;;;;;;5032345;28;20178;-58
2023/03/05 02:15:51;;;;;;;35.03;19.03;;;5.10;99.90;;;;;;5033133;28;20177;-58
2023/03/05 02:18:18;;;;;;;34.50;19.20;;;5.40;99.90;;;;;;5013492;28;20162;-58
2023/03/05 02:20:56;;;;;;;36.93;19.27;;;5.30;99.90;;;;;;5032004;28;20185;-58
2023/03/05 02:23:24;;;;;;;36.30;19.07;;;5.40;99.90;;;;;;5031222;28;20268;-58
2023/03/05 02:25:51;;;;;;;35.17;18.60;;;5.30;99.90;;;;;;5031770;28;20178;-58
2023/03/05 02:28:43;;;;;;;34.30;19.73;;;5.40;99.90;;;;;;5031124;28;20712;-58
2023/03/05 02:31:13;;;;;;;34.07;18.03;;;5.30;99.90;;;;;;5031443;28;20181;-58
2023/03/05 02:33:39;;;;;;;33.03;18.97;;;5.30;99.90;;;;;;5024521;28;20216;-58
2023/03/05 02:36:05;;;;;;;35.07;18.90;;;5.40;99.90;;;;;;5031609;28;20620;-58
2023/03/05 02:38:31;;;;;;;32.27;18.17;;;5.40;99.90;;;;;;4998108;28;20181;-58
2023/03/05 02:40:57;;;;;;;38.90;18.33;;;5.40;99.90;;;;;;5032573;28;20586;-57
2023/03/05 02:43:22;;;;;;;34.87;18.17;;;5.30;99.90;;;;;;5031811;28;20537;-58
2023/03/05 02:45:48;;;;;;;29.53;16.63;;;5.30;99.90;;;;;;5032215;28;20265;-58
2023/03/05 02:48:14;;;;;;;30.17;16.77;;;5.40;99.90;;;;;;5030547;28;20185;-58
2023/03/05 02:50:40;;;;;;;27.70;16.67;;;5.30;99.90;;;;;;5031695;28;20201;-58
2023/03/05 02:53:06;;;;;;;28.97;17.03;;;5.20;99.90;;;;;;5031696;28;20184;-58
2023/03/05 02:55:32;;;;;;;34.70;17.77;;;5.20;99.90;;;;;;5031795;28;20542;-58
2023/03/05 02:57:57;;;;;;;31.53;17.13;;;5.20;99.90;;;;;;5030803;28;20260;-58
2023/03/05 03:00:23;;;;;;;32.07;16.73;;;5.20;99.90;;;;;;5030741;28;20233;-58
2023/03/05 03:02:49;;;;;;;29.03;15.13;;;5.20;99.90;;;;;;5031447;28;20181;-58
2023/03/05 03:05:14;;;;;;;31.73;16.67;;;5.20;99.90;;;;;;5030904;28;20200;-58
2023/03/05 03:07:40;;;;;;;30.70;15.17;;;5.20;99.90;;;;;;5031210;28;20260;-58
2023/03/05 03:10:07;;;;;;;25.80;15.20;;;5.10;99.90;;;;;;5031624;28;20210;-58
2023/03/05 03:12:40;;;;;;;27.83;14.70;;;5.20;99.90;;;;;;5031494;28;20555;-58
2023/03/05 03:15:08;;;;;;;28.53;15.57;;;5.20;99.90;;;;;;5002674;28;20198;-58
2023/03/05 03:17:35;;;;;;;30.50;15.00;;;5.30;99.90;;;;;;5020460;28;20261;-58
2023/03/05 03:20:02;;;;;;;31.90;16.93;;;5.30;99.90;;;;;;5028644;28;20813;-58
2023/03/05 03:22:28;;;;;;;31.63;15.93;;;5.20;99.90;;;;;;5030553;28;20213;-58
2023/03/05 03:24:55;;;;;;;33.53;16.90;;;5.20;99.90;;;;;;5029586;28;20663;-58
2023/03/05 03:27:21;;;;;;;30.30;16.83;;;5.20;99.90;;;;;;5010515;28;20201;-58
2023/03/05 03:29:46;;;;;;;37.10;16.67;;;5.30;99.90;;;;;;5027306;28;20249;-59
2023/03/05 03:32:12;;;;;;;27.10;16.23;;;5.20;99.90;;;;;;5030270;28;20563;-58
2023/03/05 03:34:38;;;;;;;29.57;15.60;;;5.20;99.90;;;;;;5029166;28;20192;-58
2023/03/05 03:37:03;;;;;;;29.67;14.40;;;5.20;99.90;;;;;;5030074;28;20177;-58
2023/03/05 03:39:29;;;;;;;29.63;15.23;;;;;;;;;;5030019;28;20209;-58
2023/03/05 03:41:55;;;;;;;27.90;14.57;;;5.20;99.90;;;;;;5029961;28;20322;-58
2023/03/05 03:44:21;;;;;;;27.10;14.70;;;5.20;99.90;;;;;;5030100;28;20196;-58
2023/03/05 03:46:48;;;;;;;27.47;13.77;;;5.30;99.90;;;;;;5009519;28;20174;-58
2023/03/05 03:49:17;;;;;;;26.23;13.10;;;5.30;99.90;;;;;;5004208;28;20221;-58
2023/03/05 03:51:43;;;;;;;25.57;14.20;;;5.20;99.90;;;;;;5030685;28;20225;-58
2023/03/05 03:54:09;;;;;;;25.30;13.40;;;5.20;99.90;;;;;;5030076;28;20217;-58
2023/03/05 03:56:35;;;;;;;33.87;14.43;;;4.90;99.90;;;;;;5030372;28;20189;-57
2023/03/05 03:59:00;;;;;;;25.47;14.20;;;5.20;99.90;;;;;;5029897;28;20232;-58
2023/03/05 04:01:26;;;;;;;27.00;14.67;;;5.20;99.90;;;;;;5030772;28;20590;-58
2023/03/05 04:03:52;;;;;;;24.07;12.70;;;5.20;99.90;;;;;;5029944;28;20178;-58
2023/03/05 04:06:18;;;;;;;25.37;12.23;;;;;;;;;;5030590;28;20208;-58
2023/03/05 04:08:43;;;;;;;22.07;11.57;;;5.20;99.90;;;;;;5030225;28;20244;-58
2023/03/05 04:11:09;;;;;;;18.43;10.37;;;5.10;99.90;;;;;;5030970;28;20637;-58
2023/03/05 04:13:34;;;;;;;19.87;10.90;;;5.10;99.90;;;;;;5030893;28;20245;-58
2023/03/05 04:16:00;;;;;;;21.60;10.90;;;5.20;99.90;;;;;;5028950;28;20178;-58
2023/03/05 04:18:26;;;;;;;21.47;9.73;;;;;;;;;;5030308;28;20722;-58
2023/03/05 04:20:52;;;;;;;16.63;8.93;;;5.00;99.90;;;;;;5030319;28;20346;-58
2023/03/05 04:23:17;;;;;;;15.57;8.13;;;5.10;99.90;;;;;;5023072;28;20681;-58
2023/03/05 04:25:43;;;;;;;17.10;8.83;;;5.10;99.90;;;;;;5043589;28;20226;-58
2023/03/05 04:28:09;;;;;;;13.83;8.07;;;5.10;99.90;;;;;;5037290;28;20173;-59
2023/03/05 04:30:34;;;;;;;17.20;6.90;;;5.10;99.90;;;;;;5034303;28;20678;-59
2023/03/05 04:33:00;;;;;;;14.90;6.53;;;5.00;99.90;;;;;;5029322;28;20744;-58
2023/03/05 04:35:26;;;;;;;12.63;6.73;;;5.00;99.90;;;;;;5029557;28;20235;-58
2023/03/05 04:37:51;;;;;;;15.37;6.77;;;5.00;99.90;;;;;;5030020;28;20220;-58
2023/03/05 04:40:18;;;;;;;12.63;6.17;;;5.10;99.90;;;;;;5030052;28;20177;-59
2023/03/05 04:42:44;;;;;;;11.03;6.00;;;5.10;99.90;;;;;;5028711;28;20180;-58
2023/03/05 04:45:10;;;;;;;11.23;5.40;;;5.10;99.90;;;;;;5029958;28;20544;-58
2023/03/05 04:47:36;;;;;;;10.80;5.53;;;5.10;99.90;;;;;;5029780;28;20178;-58
2023/03/05 04:50:04;;;;;;;11.27;5.50;;;5.10;99.90;;;;;;5029590;28;20216;-58
2023/03/05 04:52:30;;;;;;;12.30;6.03;;;5.00;99.90;;;;;;5028739;28;20214;-57
2023/03/05 04:54:55;;;;;;;13.60;5.30;;;5.00;99.90;;;;;;5030150;28;20206;-57
2023/03/05 04:57:21;;;;;;;9.43;5.07;;;5.00;99.90;;;;;;5029629;28;20205;-57
2023/03/05 04:59:47;;;;;;;12.33;5.70;;;5.00;99.90;;;;;;5028532;28;20221;-58
2023/03/05 05:02:13;;;;;;;12.37;5.50;;;5.00;99.90;;;;;;5011216;28;20180;-58
2023/03/05 05:04:39;;;;;;;11.27;5.57;;;5.00;99.90;;;;;;4996015;28;20177;-57
2023/03/05 05:07:06;;;;;;;13.17;5.67;;;4.90;99.90;;;;;;5029502;28;20173;-57
2023/03/05 05:09:32;;;;;;;8.50;4.87;;;;;;;;;;5029698;28;20275;-58
2023/03/05 05:11:58;;;;;;;8.17;4.60;;;4.90;99.90;;;;;;5029655;28;20629;-58
2023/03/05 05:14:24;;;;;;;8.80;4.77;;;4.90;99.90;;;;;;5028803;28;20205;-58
2023/03/05 05:16:49;;;;;;;10.17;4.00;;;4.80;99.90;;;;;;5029300;28;20181;-58
2023/03/05 05:19:15;;;;;;;11.07;4.47;;;4.80;99.90;;;;;;5021983;28;20194;-58
2023/03/05 05:21:41;;;;;;;7.30;3.87;;;4.80;99.90;;;;;;5028662;28;20253;-58
2023/03/05 05:24:07;;;;;;;6.00;3.47;;;5.20;99.90;;;;;;5029852;28;20174;-58
2023/03/05 05:26:32;;;;;;;9.53;3.83;;;4.80;99.90;;;;;;5029865;28;20177;-57
2023/03/05 05:28:58;;;;;;;6.43;3.43;;;4.80;99.90;;;;;;5029555;28;20201;-57
2023/03/05 05:31:23;;;;;;;6.40;3.43;;;4.80;99.90;;;;;;5028706;28;20170;-57
2023/03/05 05:33:49;;;;;;;5.10;3.00;;;4.80;99.90;;;;;;5028679;28;20162;-56
2023/03/05 05:36:18;;;;;;;8.87;3.60;;;4.80;99.90;;;;;;5028470;28;20633;-57
2023/03/05 05:38:44;;;;;;;7.13;3.07;;;4.80;99.90;;;;;;5029394;28;20651;-57
2023/03/05 05:41:15;;;;;;;5.97;3.30;;;4.80;99.90;;;;;;5027952;28;20220;-57
2023/03/05 05:43:41;;;;;;;9.33;3.90;;;4.80;99.90;;;;;;5029302;28;20645;-56
2023/03/05 05:46:10;;;;;;;7.37;3.63;;;4.80;99.90;;;;;;5031517;28;20653;-56
2023/03/05 05:48:36;;;;;;;7.23;3.47;;;4.80;99.90;;;;;;5032387;28;20181;-56
2023/03/05 05:51:11;;;;;;;9.50;3.40;;;4.70;99.90;;;;;;5014547;28;20185;-58
2023/03/05 05:53:37;;;;;;;7.47;3.17;;;4.70;99.90;;;;;;5032511;28;20633;-57
2023/03/05 05:56:04;;;;;;;6.50;3.03;;;4.60;99.90;;;;;;5032317;28;20200;-57
2023/03/05 05:58:30;;;;;;;8.30;3.50;;;4.60;99.90;;;;;;5031852;28;20213;-56
2023/03/05 06:00:56;;;;;;;7.03;3.20;;;4.60;99.90;;;;;;5032744;28;20184;-57
2023/03/05 06:03:22;;;;;;;8.13;3.10;;;4.70;99.90;;;;;;5032181;28;20189;-57
2023/03/05 06:05:47;;;;;;;9.10;3.80;;;4.70;99.90;;;;;;5032078;28;20174;-57
2023/03/05 06:08:14;;;;;;;6.33;3.00;;;4.60;99.90;;;;;;5032720;28;20679;-57
2023/03/05 06:10:39;;;;;;;6.57;3.20;;;4.70;99.90;;;;;;5032048;28;20572;-58
2023/03/05 06:13:05;;;;;;;11.67;3.23;;;4.90;99.90;;;;;;5027119;28;20304;-57
2023/03/05 06:15:31;;;;;;;7.13;3.30;;;4.30;99.90;;;;;;5031720;28;20224;-57
2023/03/05 06:17:59;;;;;;;8.50;3.00;;;4.60;99.90;;;;;;5037292;28;20187;-57
2023/03/05 06:20:25;;;;;;;8.87;3.17;;;4.70;99.90;;;;;;5031539;28;20181;-57
2023/03/05 06:22:50;;;;;;;7.13;3.20;;;4.60;99.90;;;;;;5032571;28;20577;-58
2023/03/05 06:25:16;;;;;;;7.93;3.13;;;4.60;99.90;;;;;;5032244;28;20173;-57
2023/03/05 06:27:42;;;;;;;7.43;3.30;;;4.60;99.90;;;;;;5031617;28;20178;-57
2023/03/05 06:30:09;;;;;;;7.53;3.20;;;4.60;99.90;;;;;;5031797;28;20217;-57
2023/03/05 06:32:34;;;;;;;8.17;3.00;;;4.60;99.90;;;;;;5031195;28;20174;-57
2023/03/05 06:35:00;;;;;;;5.83;2.67;;;4.60;99.90;;;;;;5032059;28;20962;-57
2023/03/05 06:37:25;;;;;;;8.87;3.10;;;4.40;99.90;;;;;;5031383;28;20185;-57
2023/03/05 06:39:51;;;;;;;5.37;2.90;;;4.60;99.90;;;;;;5031694;28;20632;-57
2023/03/05 06:42:18;;;;;;;5.07;2.70;;;4.60;99.90;;;;;;5030712;28;20178;-57
2023/03/05 06:44:44;;;;;;;6.50;2.70;;;4.60;99.90;;;;;;5032235;28;20306;-58
2023/03/05 06:47:09;;;;;;;5.77;2.57;;;4.60;99.90;;;;;;5030789;28;20252;-57
2023/03/05 06:49:36;;;;;;;6.87;2.67;;;4.50;99.90;;;;;;5031601;28;20213;-57
2023/03/05 06:52:03;;;;;;;11.50;2.80;;;4.50;99.90;;;;;;5015495;28;20610;-57
2023/03/05 06:54:28;;;;;;;5.03;2.43;;;5.50;99.90;;;;;;5023276;28;20185;-57
2023/03/05 06:56:54;;;;;;;9.53;2.67;;;4.70;99.90;;;;;;5031552;28;20178;-57
2023/03/05 06:59:20;;;;;;;7.60;3.03;;;4.60;99.90;;;;;;5031507;28;20224;-57
2023/03/05 07:01:46;;;;;;;10.13;3.00;;;4.50;99.90;;;;;;5030435;28;20247;-57
2023/03/05 07:04:13;;;;;;;10.67;2.90;;;4.60;99.90;;;;;;5031777;28;20186;-57
2023/03/05 07:06:43;;;;;;;5.20;2.63;;;4.40;99.90;;;;;;5031973;28;20679;-57
2023/03/05 07:09:15;;;;;;;7.00;2.50;;;4.40;99.90;;;;;;5025243;28;20218;-57
2023/03/05 07:11:41;;;;;;;7.30;2.70;;;4.40;99.90;;;;;;5028908;28;20192;-57
2023/03/05 07:14:07;;;;;;;5.67;2.77;;;4.50;99.90;;;;;;5030924;28;20174;-57
2023/03/05 07:16:33;;;;;;;7.23;2.60;;;4.50;99.90;;;;;;5031366;28;20174;-60
2023/03/05 07:19:04;;;;;;;5.07;2.83;;;4.40;99.90;;;;;;5027993;28;20397;-57
2023/03/05 07:21:32;;;;;;;8.93;3.00;;;4.50;99.90;;;;;;5036322;28;20190;-57
2023/03/05 07:23:59;;;;;;;4.90;2.60;;;4.50;99.90;;;;;;4993443;28;20822;-57
2023/03/05 07:26:26;;;;;;;7.33;3.70;;;4.50;99.90;;;;;;5027760;28;20213;-56
2023/03/05 07:28:52;;;;;;;8.80;2.90;;;4.60;99.90;;;;;;5030596;28;20665;-56
2023/03/05 07:31:20;;;;;;;5.30;2.90;;;4.50;99.90;;;;;;5029980;28;20197;-56
2023/03/05 07:33:48;;;;;;;10.87;3.60;;;4.40;99.90;;;;;;5030402;28;20185;-56
2023/03/05 07:36:14;;;;;;;5.60;2.93;;;4.40;99.90;;;;;;5030860;28;20162;-56
2023/03/05 07:38:40;;;;;;;8.43;2.97;;;4.40;99.90;;;;;;5031174;28;20261;-56
2023/03/05 07:41:09;;;;;;;6.33;2.83;;;4.60;99.90;;;;;;5031382;28;20240;-56
2023/03/05 07:43:36;;;;;;;6.50;2.93;;;4.50;99.90;;;;;;5031366;28;20168;-56
2023/03/05 07:46:06;;;;;;;6.53;3.13;;;4.60;99.90;;;;;;5029397;28;20555;-57
2023/03/05 07:48:33;;;;;;;9.93;3.43;;;4.40;99.90;;;;;;5030890;28;20178;-57
2023/03/05 07:51:03;;;;;;;7.67;2.87;;;4.50;99.90;;;;;;5029925;28;20521;-57
2023/03/05 07:53:29;;;;;;;4.73;2.90;;;4.60;99.90;;;;;;5030387;28;20270;-57
2023/03/05 07:55:55;;;;;;;5.37;3.00;;;4.60;99.90;;;;;;5025783;28;20577;-56
2023/03/05 07:58:21;;;;;;;8.33;3.33;;;;;;;;;;5030409;28;20273;-57
2023/03/05 08:00:46;;;;;;;9.50;3.33;;;4.70;99.90;;;;;;5030651;28;20174;-58
2023/03/05 08:03:12;;;;;;;6.63;3.03;;;4.60;99.90;;;;;;5020589;28;20221;-57
2023/03/05 08:05:39;;;;;;;4.70;3.13;;;4.70;99.90;;;;;;5019447;28;20714;-57
2023/03/05 08:08:05;;;;;;;7.13;3.50;;;4.60;99.90;;;;;;5029897;28;20178;-57
2023/03/05 08:10:30;;;;;;;11.00;3.07;;;4.90;99.90;;;;;;5030384;28;20237;-57
2023/03/05 08:12:56;;;;;;;6.33;3.10;;;4.70;99.90;;;;;;5030152;28;20653;-57
2023/03/05 08:15:22;;;;;;;8.37;3.53;;;4.70;99.90;;;;;;5012458;28;20185;-57
2023/03/05 08:17:47;;;;;;;7.37;3.10;;;4.90;99.90;;;;;;5029574;28;20178;-58
2023/03/05 08:20:13;;;;;;;9.23;3.50;;;4.70;99.90;;;;;;5027805;28;20584;-58
2023/03/05 08:22:38;;;;;;;7.43;3.23;;;4.90;99.90;;;;;;5027562;28;20194;-58
2023/03/05 08:25:06;;;;;;;8.50;3.13;;;4.80;99.90;;;;;;5015553;28;20221;-58
2023/03/05 08:27:31;;;;;;;7.57;2.93;;;4.80;99.90;;;;;;5011420;28;20181;-59
2023/03/05 08:29:57;;;;;;;7.17;3.40;;;4.90;99.90;;;;;;5012366;28;20210;-58
2023/03/05 08:32:23;;;;;;;8.30;3.23;;;5.10;99.90;;;;;;5030117;28;20170;-58
2023/03/05 08:34:49;;;;;;;8.30;3.20;;;4.80;99.90;;;;;;5028618;28;20177;-58
2023/03/05 08:37:14;;;;;;;7.00;3.07;;;4.90;99.90;;;;;;5027843;28;20170;-58
2023/03/05 08:39:40;;;;;;;5.80;3.33;;;5.00;99.90;;;;;;5028982;28;20181;-58
2023/03/05 08:42:06;;;;;;;9.93;3.53;;;5.10;99.90;;;;;;5028401;28;20249;-57
2023/03/05 08:44:31;;;;;;;5.93;2.80;;;5.20;99.90;;;;;;5030304;28;20196;-57
2023/03/05 08:46:57;;;;;;;9.30;3.53;;;5.20;99.90;;;;;;5030130;28;20249;-57
2023/03/05 08:49:22;;;;;;;13.40;3.30;;;5.20;99.90;;;;;;5030058;28;20217;-57
2023/03/05 08:51:48;;;;;;;6.47;2.93;;;5.30;99.90;;;;;;5030242;28;20268;-57
2023/03/05 08:54:14;;;;;;;8.30;3.10;;;5.00;99.90;;;;;;5030307;28;20176;-57
2023/03/05 08:56:39;;;;;;;9.50;3.73;;;5.60;99.90;;;;;;5029256;28;20202;-57
2023/03/05 08:59:05;;;;;;;6.23;3.13;;;5.30;99.90;;;;;;5019753;28;20273;-58
2023/03/05 09:01:31;;;;;;;7.27;3.20;;;5.30;99.90;;;;;;5010091;28;20333;-58
2023/03/05 09:04:00;;;;;;;6.90;3.30;;;5.40;99.90;;;;;;5009804;28;20186;-57
2023/03/05 09:06:26;;;;;;;10.73;3.40;;;5.40;99.90;;;;;;5009170;28;20179;-57
2023/03/05 09:08:52;;;;;;;9.73;3.63;;;5.20;99.90;;;;;;5018091;28;20210;-57
2023/03/05 09:11:18;;;;;;;5.60;2.70;;;5.30;99.90;;;;;;5029676;28;20188;-57
2023/03/05 09:13:44;;;;;;;5.77;2.33;;;5.30;99.90;;;;;;5029657;28;20181;-56
2023/03/05 09:16:13;;;;;;;6.13;3.10;;;5.40;99.90;;;;;;5022566;28;20558;-56
2023/03/05 09:18:39;;;;;;;6.30;3.20;;;5.40;99.90;;;;;;5029739;28;20173;-56
2023/03/05 09:21:11;;;;;;;8.80;3.13;;;5.40;99.90;;;;;;5033404;28;20248;-55
2023/03/05 09:23:39;;;;;;;6.00;3.37;;;5.70;99.90;;;;;;5033190;28;20653;-56
2023/03/05 09:26:06;;;;;;;5.97;2.87;;;5.50;99.90;;;;;;5033212;28;20161;-56
2023/03/05 09:28:32;;;;;;;7.50;2.90;;;5.70;99.90;;;;;;5033714;28;20182;-56
2023/03/05 09:31:02;;;;;;;6.23;2.63;;;5.70;99.90;;;;;;5033924;28;20242;-55
2023/03/05 09:33:27;;;;;;;8.00;3.00;;;5.60;99.90;;;;;;5032516;28;20188;-55
2023/03/05 09:35:53;;;;;;;8.40;3.00;;;5.70;99.90;;;;;;5033871;28;20688;-56
2023/03/05 09:38:20;;;;;;;8.50;3.03;;;6.00;99.90;;;;;;5033948;28;20166;-57
2023/03/05 09:41:06;;;;;;;7.37;3.00;;;5.80;99.90;;;;;;5033246;28;20257;-69
2023/03/05 09:43:43;;;;;;;6.20;3.20;;;5.80;99.90;;;;;;5033557;28;20252;-59
2023/03/05 09:46:35;;;;;;;6.57;3.10;;;5.90;99.90;;;;;;5033785;28;20173;-60
2023/03/05 09:49:13;;;;;;;8.63;2.87;;;5.80;99.90;;;;;;5015512;28;20255;-59
2023/03/05 09:51:40;;;;;;;8.57;3.03;;;5.90;99.90;;;;;;5014170;28;20260;-60
2023/03/05 09:54:12;;;;;;;8.67;3.33;;;5.80;99.90;;;;;;5015107;28;20284;-59
2023/03/05 09:56:46;;;;;;;6.87;3.00;;;5.90;99.90;;;;;;5032420;28;21629;-59
2023/03/05 09:59:27;;;;;;;6.27;2.83;;;5.80;99.90;;;;;;5032946;28;20218;-59
2023/03/05 10:01:58;;;;;;;10.17;3.47;;;5.90;99.90;;;;;;5032159;28;20181;-59
2023/03/05 10:04:45;;;;;;;8.03;3.10;;;5.90;99.90;;;;;;5032459;28;20178;-59
2023/03/05 10:07:17;;;;;;;3.77;2.60;;;5.90;99.90;;;;;;5031709;28;20196;-59
2023/03/05 10:09:55;;;;;;;9.60;3.00;;;5.90;99.90;;;;;;5029438;28;20484;-59
2023/03/05 10:12:56;;;;;;;4.87;2.43;;;6.00;99.90;;;;;;5029099;28;20202;-59
2023/03/05 10:15:43;;;;;;;4.87;2.63;;;6.10;99.90;;;;;;5025961;28;20224;-59
2023/03/05 10:18:34;;;;;;;7.07;3.47;;;6.10;99.90;;;;;;5017103;28;20209;-59
2023/03/05 10:21:29;;;;;;;10.30;3.10;;;6.00;99.90;;;;;;5011493;28;20269;-59
2023/03/05 10:24:02;;;;;;;7.17;3.10;;;5.90;99.90;;;;;;5011280;28;20167;-59
2023/03/05 10:26:46;;;;;;;9.43;3.33;;;5.90;99.90;;;;;;5031180;28;20171;-59
2023/03/05 10:29:38;;;;;;;5.00;3.10;;;5.90;99.90;;;;;;5027146;28;20218;-59
2023/03/05 10:32:35;;;;;;;6.53;2.70;;;5.90;99.90;;;;;;5025637;28;20186;-59
2023/03/05 10:35:13;;;;;;;4.67;2.87;;;5.80;99.90;;;;;;5032739;28;20182;-59
2023/03/05 10:38:03;;;;;;;8.23;3.13;;;5.90;99.90;;;;;;5015012;28;20170;-59
2023/03/05 10:40:53;;;;;;;6.97;3.00;;;6.00;99.90;;;;;;5031954;28;20209;-59
2023/03/05 10:43:47;;;;;;;6.03;2.87;;;6.00;99.90;;;;;;5014943;28;20273;-59
2023/03/05 10:46:19;;;;;;;8.40;2.63;;;6.10;99.90;;;;;;5032902;28;20189;-59
2023/03/05 10:49:17;;;;;;;4.40;2.60;;;6.10;99.90;;;;;;5030738;28;20193;-58
2023/03/05 10:51:56;;;;;;;4.77;2.50;;;6.10;99.90;;;;;;5010863;28;20193;-59
2023/03/05 10:54:28;;;;;;;4.93;2.63;;;6.10;99.90;;;;;;5015243;28;20252;-59
2023/03/05 10:57:16;;;;;;;6.67;3.20;;;6.10;99.90;;;;;;5027097;28;20182;-59
2023/03/05 10:59:56;;;;;;;6.17;2.80;;;6.10;99.90;;;;;;5006727;28;20222;-59
2023/03/05 11:02:22;;;;;;;4.73;2.60;;;6.10;99.90;;;;;;5029060;28;20181;-59
2023/03/05 11:04:49;;;;;;;6.33;2.77;;;5.90;99.90;;;;;;5014430;28;20177;-59
2023/03/05 11:07:14;;;;;;;7.47;2.77;;;6.10;99.90;;;;;;5025017;28;20193;-59
2023/03/05 11:09:41;;;;;;;5.10;2.90;;;6.20;99.90;;;;;;5032074;28;20197;-59
2023/03/05 11:12:16;;;;;;;6.40;3.00;;;6.10;99.90;;;;;;5031565;28;20190;-57
2023/03/05 11:15:04;;;;;;;6.47;3.10;;;6.20;99.90;;;;;;5032101;28;20184;-57
2023/03/05 11:17:37;;;;;;;8.53;2.83;;;6.10;99.90;;;;;;5014391;28;20273;-58
2023/03/05 11:20:30;;;;;;;7.23;2.90;;;6.20;99.90;;;;;;5031741;28;20188;-57
2023/03/05 11:23:22;;;;;;;6.07;2.53;;;6.10;99.90;;;;;;5031889;28;20178;-59
2023/03/05 11:26:01;;;;;;;5.37;3.07;;;6.00;99.90;;;;;;5031875;28;20170;-59
2023/03/05 11:28:29;;;;;;;8.07;3.07;;;6.10;99.90;;;;;;5031750;28;20181;-59
2023/03/05 11:31:06;;;;;;;6.03;2.87;;;6.10;99.90;;;;;;5031605;28;20271;-60
2023/03/05 11:33:33;;;;;;;11.43;2.83;;;6.20;99.90;;;;;;5025901;28;20288;-60
2023/03/05 11:36:18;;;;;;;6.77;2.93;;;6.00;99.90;;;;;;5046157;28;20253;-60
2023/03/05 11:38:56;;;;;;;4.40;2.60;;;6.00;99.90;;;;;;5007159;28;20200;-60
2023/03/05 11:41:32;;;;;;;6.07;3.20;;;6.00;99.90;;;;;;5030673;28;20170;-60
2023/03/05 11:44:02;;;;;;;9.60;2.90;;;6.00;99.90;;;;;;5029787;28;20197;-60
2023/03/05 11:46:33;;;;;;;5.23;2.50;;;6.20;99.90;;;;;;5031202;28;20613;-58
2023/03/05 11:48:59;;;;;;;9.53;3.40;;;5.90;99.90;;;;;;5030117;28;20209;-58
2023/03/05 11:51:33;;;;;;;9.00;3.17;;;5.90;99.90;;;;;;5013285;28;20220;-58
2023/03/05 11:54:06;;;;;;;8.93;3.03;;;5.90;99.90;;;;;;5011625;28;20644;-58
2023/03/05 11:56:40;;;;;;;7.73;2.90;;;7.00;99.90;;;;;;5030360;28;20297;-60
2023/03/05 11:59:17;;;;;;;6.13;2.47;;;5.90;99.90;;;;;;5030469;28;20225;-60
2023/03/05 12:01:51;;;;;;;13.70;3.23;;;6.20;99.90;;;;;;5030744;28;20177;-60
2023/03/05 12:04:18;;;;;;;15.87;3.07;;;6.20;99.90;;;;;;5029347;28;20525;-60
2023/03/05 12:06:54;;;;;;;8.83;2.80;;;6.10;99.90;;;;;;5025993;28;20194;-60
2023/03/05 12:09:36;;;;;;;9.10;2.70;;;6.20;99.90;;;;;;5019424;28;20197;-60
2023/03/05 12:12:16;;;;;;;9.47;2.73;;;6.00;99.90;;;;;;5029434;28;20678;-58
2023/03/05 12:14:51;;;;;;;9.13;2.90;;;6.20;99.90;;;;;;5029909;28;20174;-57
2023/03/05 12:17:17;;;;;;;8.73;2.97;;;;;;;;;;5029951;28;20647;-58
2023/03/05 12:20:11;;;;;;;8.77;2.90;;;6.20;99.90;;;;;;5030170;28;20193;-60
2023/03/05 12:22:39;;;;;;;7.63;3.30;;;6.10;99.90;;;;;;5028605;28;20255;-60
2023/03/05 12:25:27;;;;;;;11.73;2.90;;;6.10;99.90;;;;;;5030420;28;20184;-60
2023/03/05 12:27:53;;;;;;;7.70;2.73;;;6.10;99.90;;;;;;5029935;28;20162;-60
2023/03/05 12:30:48;;;;;;;5.80;3.00;;;6.00;99.90;;;;;;5030482;28;20237;-60
2023/03/05 12:33:34;;;;;;;11.03;3.20;;;6.00;99.90;;;;;;4940111;28;20193;-61
2023/03/05 12:36:18;;;;;;;6.70;2.90;;;6.10;99.90;;;;;;5030352;28;20178;-58
2023/03/05 12:38:50;;;;;;;6.17;2.60;;;5.90;99.90;;;;;;5030274;28;20174;-58
2023/03/05 12:41:22;;;;;;;9.27;2.63;;;5.70;99.90;;;;;;5030173;28;20178;-58
2023/03/05 12:44:06;;;;;;;5.63;2.60;;;5.80;99.90;;;;;;5029462;28;20549;-58
2023/03/05 12:46:39;;;;;;;7.93;2.73;;;5.80;99.90;;;;;;5029193;28;20178;-59
2023/03/05 12:49:20;;;;;;;9.10;2.60;;;5.80;99.90;;;;;;5029899;28;20237;-59
2023/03/05 12:51:47;;;;;;;9.87;2.87;;;6.00;99.90;;;;;;5011610;28;20485;-59
2023/03/05 12:54:28;;;;;;;8.37;2.90;;;5.80;99.90;;;;;;5029259;28;20182;-60
2023/03/05 12:56:56;;;;;;;7.17;2.53;;;5.90;99.90;;;;;;5028550;28;20181;-60
2023/03/05 12:59:27;;;;;;;5.53;2.57;;;5.80;99.90;;;;;;5028980;28;20237;-59
2023/03/05 13:02:02;;;;;;;5.90;2.50;;;5.90;99.90;;;;;;5006962;28;20656;-59